sensor_id;sensor_type;location;lat;lon;timestamp;P1;durP1;ratioP1;P2;durP2;ratioP2
12921;SDS011;6528;48.086;16.282;2022-07-06T00:01:53;6.57;;;6.13;;
12921;SDS011;6528;48.086;16.282;2022-07-06T00:04:20;6.10;;;5.70;;
12921;SDS011;6528;48.086;16.282;2022-07-06T00:06:47;6.40;;;5.87;;
12921;SDS011;6528;48.086;16.282;2022-07-06T00:09:14;6.30;;;6.00;;
12921;SDS011;6528;48.086;16.282;2022-07-06T00:11:41;6.70;;;6.30;;
12921;SDS011;6528;48.086;16.282;2022-07-06T00:14:08;5.90;;;5.50;;
12921;SDS011;6528;48.086;16.282;2022-07-06T00:16:35;6.70;;;6.20;;
12921;SDS011;6528;48.086;16.282;2022-07-06T00:19:02;6.73;;;6.23;;
12921;SDS011;6528;48.086;16.282;2022-07-06T00:21:28;5.87;;;5.43;;
12921;SDS011;6528;48.086;16.282;2022-07-06T00:23:55;5.73;;;5.43;;
12921;SDS011;6528;48.086;16.282;2022-07-06T00:26:22;6.20;;;5.80;;
12921;SDS011;6528;48.086;16.282;2022-07-06T00:28:49;6.30;;;5.80;;
12921;SDS011;6528;48.086;16.282;2022-07-06T00:31:16;6.43;;;6.03;;
12921;SDS011;6528;48.086;16.282;2022-07-06T00:33:42;5.73;;;5.37;;
12921;SDS011;6528;48.086;16.282;2022-07-06T00:36:09;6.60;;;6.10;;
12921;SDS011;6528;48.086;16.282;2022-07-06T00:38:36;6.97;;;6.43;;
12921;SDS011;6528;48.086;16.282;2022-07-06T00:41:03;6.20;;;5.80;;
12921;SDS011;6528;48.086;16.282;2022-07-06T00:43:51;6.10;;;5.70;;
12921;SDS011;6528;48.086;16.282;2022-07-06T00:46:18;6.80;;;6.13;;
12921;SDS011;6528;48.086;16.282;2022-07-06T00:48:45;5.90;;;5.57;;
12921;SDS011;6528;48.086;16.282;2022-07-06T00:51:12;5.70;;;5.40;;
12921;SDS011;6528;48.086;16.282;2022-07-06T00:53:40;6.80;;;6.20;;
12921;SDS011;6528;48.086;16.282;2022-07-06T00:56:08;6.63;;;6.23;;
12921;SDS011;6528;48.086;16.282;2022-07-06T00:58:35;5.90;;;5.50;;
12921;SDS011;6528;48.086;16.282;2022-07-06T01:01:02;5.87;;;5.47;;
12921;SDS011;6528;48.086;16.282;2022-07-06T01:03:29;6.60;;;6.00;;
12921;SDS011;6528;48.086;16.282;2022-07-06T01:05:56;6.07;;;5.67;;
12921;SDS011;6528;48.086;16.282;2022-07-06T01:08:23;6.53;;;6.03;;
12921;SDS011;6528;48.086;16.282;2022-07-06T01:10:51;6.87;;;6.27;;
12921;SDS011;6528;48.086;16.282;2022-07-06T01:13:18;6.73;;;5.70;;
12921;SDS011;6528;48.086;16.282;2022-07-06T01:15:45;6.30;;;5.90;;
12921;SDS011;6528;48.086;16.282;2022-07-06T01:18:12;5.93;;;5.43;;
12921;SDS011;6528;48.086;16.282;2022-07-06T01:20:39;5.50;;;5.20;;
12921;SDS011;6528;48.086;16.282;2022-07-06T01:23:06;6.70;;;6.10;;
12921;SDS011;6528;48.086;16.282;2022-07-06T01:25:32;7.30;;;6.17;;
12921;SDS011;6528;48.086;16.282;2022-07-06T01:27:59;5.47;;;5.17;;
12921;SDS011;6528;48.086;16.282;2022-07-06T01:30:27;5.90;;;5.50;;
12921;SDS011;6528;48.086;16.282;2022-07-06T01:32:54;5.63;;;5.23;;
12921;SDS011;6528;48.086;16.282;2022-07-06T01:35:20;5.70;;;5.27;;
12921;SDS011;6528;48.086;16.282;2022-07-06T01:37:50;5.53;;;5.23;;
12921;SDS011;6528;48.086;16.282;2022-07-06T01:40:17;7.03;;;5.60;;
12921;SDS011;6528;48.086;16.282;2022-07-06T01:42:44;5.20;;;4.90;;
12921;SDS011;6528;48.086;16.282;2022-07-06T01:45:10;5.77;;;5.33;;
12921;SDS011;6528;48.086;16.282;2022-07-06T01:47:37;5.50;;;5.20;;
12921;SDS011;6528;48.086;16.282;2022-07-06T01:50:05;4.80;;;4.60;;
12921;SDS011;6528;48.086;16.282;2022-07-06T01:52:34;5.77;;;5.47;;
12921;SDS011;6528;48.086;16.282;2022-07-06T01:55:01;6.20;;;4.60;;
12921;SDS011;6528;48.086;16.282;2022-07-06T01:57:28;4.40;;;4.20;;
12921;SDS011;6528;48.086;16.282;2022-07-06T01:59:55;5.40;;;4.97;;
12921;SDS011;6528;48.086;16.282;2022-07-06T02:02:22;4.50;;;4.20;;
12921;SDS011;6528;48.086;16.282;2022-07-06T02:04:48;5.10;;;4.70;;
12921;SDS011;6528;48.086;16.282;2022-07-06T02:07:15;4.20;;;4.00;;
12921;SDS011;6528;48.086;16.282;2022-07-06T02:09:42;4.20;;;3.90;;
12921;SDS011;6528;48.086;16.282;2022-07-06T02:12:09;7.37;;;4.47;;
12921;SDS011;6528;48.086;16.282;2022-07-06T02:14:36;3.73;;;3.53;;
12921;SDS011;6528;48.086;16.282;2022-07-06T02:17:03;4.27;;;3.90;;
12921;SDS011;6528;48.086;16.282;2022-07-06T02:19:30;4.03;;;3.73;;
12921;SDS011;6528;48.086;16.282;2022-07-06T02:21:56;4.30;;;3.93;;
12921;SDS011;6528;48.086;16.282;2022-07-06T02:24:23;4.63;;;4.33;;
12921;SDS011;6528;48.086;16.282;2022-07-06T02:26:50;4.60;;;4.30;;
12921;SDS011;6528;48.086;16.282;2022-07-06T02:29:17;4.87;;;4.57;;
12921;SDS011;6528;48.086;16.282;2022-07-06T02:31:43;5.40;;;4.70;;
12921;SDS011;6528;48.086;16.282;2022-07-06T02:34:10;4.93;;;4.50;;
12921;SDS011;6528;48.086;16.282;2022-07-06T02:36:37;5.13;;;4.83;;
12921;SDS011;6528;48.086;16.282;2022-07-06T02:39:04;4.97;;;4.67;;
12921;SDS011;6528;48.086;16.282;2022-07-06T02:41:30;4.80;;;4.50;;
12921;SDS011;6528;48.086;16.282;2022-07-06T02:43:57;4.93;;;4.63;;
12921;SDS011;6528;48.086;16.282;2022-07-06T02:46:24;5.07;;;4.70;;
12921;SDS011;6528;48.086;16.282;2022-07-06T02:48:51;4.47;;;4.17;;
12921;SDS011;6528;48.086;16.282;2022-07-06T02:51:18;6.00;;;5.60;;
12921;SDS011;6528;48.086;16.282;2022-07-06T02:53:44;5.37;;;5.07;;
12921;SDS011;6528;48.086;16.282;2022-07-06T02:56:11;5.07;;;4.77;;
12921;SDS011;6528;48.086;16.282;2022-07-06T02:58:38;5.00;;;4.70;;
12921;SDS011;6528;48.086;16.282;2022-07-06T03:01:05;5.40;;;5.10;;
12921;SDS011;6528;48.086;16.282;2022-07-06T03:03:32;5.00;;;4.60;;
12921;SDS011;6528;48.086;16.282;2022-07-06T03:05:59;4.70;;;4.50;;
12921;SDS011;6528;48.086;16.282;2022-07-06T03:08:26;4.73;;;4.43;;
12921;SDS011;6528;48.086;16.282;2022-07-06T03:10:53;4.50;;;4.27;;
12921;SDS011;6528;48.086;16.282;2022-07-06T03:13:20;5.07;;;4.77;;
12921;SDS011;6528;48.086;16.282;2022-07-06T03:15:46;5.03;;;4.63;;
12921;SDS011;6528;48.086;16.282;2022-07-06T03:18:13;5.67;;;5.27;;
12921;SDS011;6528;48.086;16.282;2022-07-06T03:20:40;5.40;;;5.00;;
12921;SDS011;6528;48.086;16.282;2022-07-06T03:23:07;4.93;;;4.47;;
12921;SDS011;6528;48.086;16.282;2022-07-06T03:25:34;4.47;;;4.17;;
12921;SDS011;6528;48.086;16.282;2022-07-06T03:28:00;4.50;;;4.27;;
12921;SDS011;6528;48.086;16.282;2022-07-06T03:30:27;4.90;;;4.60;;
12921;SDS011;6528;48.086;16.282;2022-07-06T03:32:54;4.83;;;4.43;;
12921;SDS011;6528;48.086;16.282;2022-07-06T03:35:21;3.80;;;3.60;;
12921;SDS011;6528;48.086;16.282;2022-07-06T03:37:48;4.23;;;4.00;;
12921;SDS011;6528;48.086;16.282;2022-07-06T03:40:14;5.40;;;4.90;;
12921;SDS011;6528;48.086;16.282;2022-07-06T03:42:41;4.77;;;4.47;;
12921;SDS011;6528;48.086;16.282;2022-07-06T03:45:08;5.00;;;4.53;;
12921;SDS011;6528;48.086;16.282;2022-07-06T03:47:35;4.63;;;4.33;;
12921;SDS011;6528;48.086;16.282;2022-07-06T03:50:02;4.23;;;4.03;;
12921;SDS011;6528;48.086;16.282;2022-07-06T03:52:29;4.57;;;4.27;;
12921;SDS011;6528;48.086;16.282;2022-07-06T03:54:56;5.07;;;4.40;;
12921;SDS011;6528;48.086;16.282;2022-07-06T03:57:23;4.20;;;3.90;;
12921;SDS011;6528;48.086;16.282;2022-07-06T03:59:51;4.93;;;4.43;;
12921;SDS011;6528;48.086;16.282;2022-07-06T04:02:18;4.00;;;3.70;;
12921;SDS011;6528;48.086;16.282;2022-07-06T04:04:45;5.23;;;4.93;;
12921;SDS011;6528;48.086;16.282;2022-07-06T04:07:12;4.70;;;4.40;;
12921;SDS011;6528;48.086;16.282;2022-07-06T04:09:39;4.57;;;4.17;;
12921;SDS011;6528;48.086;16.282;2022-07-06T04:12:06;4.77;;;4.37;;
12921;SDS011;6528;48.086;16.282;2022-07-06T04:14:33;4.17;;;3.87;;
12921;SDS011;6528;48.086;16.282;2022-07-06T04:17:01;4.10;;;3.80;;
12921;SDS011;6528;48.086;16.282;2022-07-06T04:19:51;3.80;;;3.60;;
12921;SDS011;6528;48.086;16.282;2022-07-06T04:22:17;4.50;;;4.10;;
12921;SDS011;6528;48.086;16.282;2022-07-06T04:24:44;4.30;;;4.00;;
12921;SDS011;6528;48.086;16.282;2022-07-06T04:27:11;4.40;;;4.13;;
12921;SDS011;6528;48.086;16.282;2022-07-06T04:29:38;4.17;;;3.97;;
12921;SDS011;6528;48.086;16.282;2022-07-06T04:32:04;3.47;;;3.27;;
12921;SDS011;6528;48.086;16.282;2022-07-06T04:34:32;4.17;;;3.87;;
12921;SDS011;6528;48.086;16.282;2022-07-06T04:36:59;3.70;;;3.50;;
12921;SDS011;6528;48.086;16.282;2022-07-06T04:39:26;3.67;;;3.47;;
12921;SDS011;6528;48.086;16.282;2022-07-06T04:41:53;4.03;;;3.57;;
12921;SDS011;6528;48.086;16.282;2022-07-06T04:44:20;3.97;;;3.67;;
12921;SDS011;6528;48.086;16.282;2022-07-06T04:46:47;4.13;;;3.93;;
12921;SDS011;6528;48.086;16.282;2022-07-06T04:49:14;3.70;;;3.50;;
12921;SDS011;6528;48.086;16.282;2022-07-06T04:51:40;7.90;;;3.83;;
12921;SDS011;6528;48.086;16.282;2022-07-06T04:54:07;3.87;;;3.57;;
12921;SDS011;6528;48.086;16.282;2022-07-06T04:56:34;3.17;;;2.97;;
12921;SDS011;6528;48.086;16.282;2022-07-06T04:59:01;3.90;;;3.20;;
12921;SDS011;6528;48.086;16.282;2022-07-06T05:01:27;6.10;;;3.40;;
12921;SDS011;6528;48.086;16.282;2022-07-06T05:03:54;3.90;;;3.60;;
12921;SDS011;6528;48.086;16.282;2022-07-06T05:06:21;3.97;;;3.73;;
12921;SDS011;6528;48.086;16.282;2022-07-06T05:08:48;3.60;;;3.40;;
12921;SDS011;6528;48.086;16.282;2022-07-06T05:11:15;3.60;;;3.23;;
12921;SDS011;6528;48.086;16.282;2022-07-06T05:13:42;3.20;;;3.00;;
12921;SDS011;6528;48.086;16.282;2022-07-06T05:16:08;3.63;;;3.07;;
12921;SDS011;6528;48.086;16.282;2022-07-06T05:18:35;3.77;;;3.17;;
12921;SDS011;6528;48.086;16.282;2022-07-06T05:21:02;2.90;;;2.80;;
12921;SDS011;6528;48.086;16.282;2022-07-06T05:23:29;2.77;;;2.67;;
12921;SDS011;6528;48.086;16.282;2022-07-06T05:25:56;3.40;;;3.10;;
12921;SDS011;6528;48.086;16.282;2022-07-06T05:28:23;3.30;;;3.10;;
12921;SDS011;6528;48.086;16.282;2022-07-06T05:30:50;3.70;;;3.50;;
12921;SDS011;6528;48.086;16.282;2022-07-06T05:33:17;3.87;;;3.20;;
12921;SDS011;6528;48.086;16.282;2022-07-06T05:35:44;4.10;;;3.40;;
12921;SDS011;6528;48.086;16.282;2022-07-06T05:38:16;3.07;;;2.77;;
12921;SDS011;6528;48.086;16.282;2022-07-06T05:40:44;2.60;;;2.50;;
12921;SDS011;6528;48.086;16.282;2022-07-06T05:43:12;3.43;;;2.80;;
12921;SDS011;6528;48.086;16.282;2022-07-06T05:45:38;3.47;;;2.77;;
12921;SDS011;6528;48.086;16.282;2022-07-06T05:48:05;3.03;;;2.83;;
12921;SDS011;6528;48.086;16.282;2022-07-06T05:50:51;4.20;;;2.80;;
12921;SDS011;6528;48.086;16.282;2022-07-06T05:53:18;3.53;;;2.77;;
12921;SDS011;6528;48.086;16.282;2022-07-06T05:55:46;2.50;;;2.40;;
12921;SDS011;6528;48.086;16.282;2022-07-06T05:58:14;3.17;;;2.87;;
12921;SDS011;6528;48.086;16.282;2022-07-06T06:00:41;3.23;;;3.03;;
12921;SDS011;6528;48.086;16.282;2022-07-06T06:03:08;2.83;;;2.63;;
12921;SDS011;6528;48.086;16.282;2022-07-06T06:05:35;2.90;;;2.70;;
12921;SDS011;6528;48.086;16.282;2022-07-06T06:08:02;2.53;;;2.43;;
12921;SDS011;6528;48.086;16.282;2022-07-06T06:10:29;2.47;;;2.37;;
12921;SDS011;6528;48.086;16.282;2022-07-06T06:12:56;2.73;;;2.53;;
12921;SDS011;6528;48.086;16.282;2022-07-06T06:15:23;2.20;;;2.10;;
12921;SDS011;6528;48.086;16.282;2022-07-06T06:17:50;4.30;;;2.50;;
12921;SDS011;6528;48.086;16.282;2022-07-06T06:20:17;2.40;;;2.30;;
12921;SDS011;6528;48.086;16.282;2022-07-06T06:22:48;2.60;;;2.40;;
12921;SDS011;6528;48.086;16.282;2022-07-06T06:25:15;2.57;;;2.33;;
12921;SDS011;6528;48.086;16.282;2022-07-06T06:27:44;2.43;;;2.23;;
12921;SDS011;6528;48.086;16.282;2022-07-06T06:30:11;2.73;;;2.53;;
12921;SDS011;6528;48.086;16.282;2022-07-06T06:32:39;2.83;;;2.67;;
12921;SDS011;6528;48.086;16.282;2022-07-06T06:35:06;2.20;;;2.10;;
12921;SDS011;6528;48.086;16.282;2022-07-06T06:37:33;2.30;;;2.20;;
12921;SDS011;6528;48.086;16.282;2022-07-06T06:40:03;2.30;;;2.20;;
12921;SDS011;6528;48.086;16.282;2022-07-06T06:42:31;2.20;;;2.00;;
12921;SDS011;6528;48.086;16.282;2022-07-06T06:44:59;2.50;;;2.30;;
12921;SDS011;6528;48.086;16.282;2022-07-06T06:47:25;2.43;;;2.33;;
12921;SDS011;6528;48.086;16.282;2022-07-06T06:49:52;2.70;;;2.50;;
12921;SDS011;6528;48.086;16.282;2022-07-06T06:52:19;2.70;;;2.60;;
12921;SDS011;6528;48.086;16.282;2022-07-06T06:55:05;2.93;;;2.20;;
12921;SDS011;6528;48.086;16.282;2022-07-06T06:57:32;2.80;;;1.87;;
12921;SDS011;6528;48.086;16.282;2022-07-06T06:59:59;2.10;;;2.00;;
12921;SDS011;6528;48.086;16.282;2022-07-06T07:02:26;1.90;;;1.50;;
12921;SDS011;6528;48.086;16.282;2022-07-06T07:04:53;1.70;;;1.60;;
12921;SDS011;6528;48.086;16.282;2022-07-06T07:07:20;2.13;;;1.90;;
12921;SDS011;6528;48.086;16.282;2022-07-06T07:09:47;1.85;;;1.42;;
12921;SDS011;6528;48.086;16.282;2022-07-06T07:12:14;3.13;;;2.20;;
12921;SDS011;6528;48.086;16.282;2022-07-06T07:14:43;8.57;;;4.00;;
12921;SDS011;6528;48.086;16.282;2022-07-06T07:17:10;3.67;;;2.33;;
12921;SDS011;6528;48.086;16.282;2022-07-06T07:19:38;2.03;;;1.92;;
12921;SDS011;6528;48.086;16.282;2022-07-06T07:22:06;2.38;;;2.17;;
12921;SDS011;6528;48.086;16.282;2022-07-06T07:24:33;5.95;;;1.83;;
12921;SDS011;6528;48.086;16.282;2022-07-06T07:27:00;4.22;;;2.08;;
12921;SDS011;6528;48.086;16.282;2022-07-06T07:29:27;5.57;;;4.88;;
12921;SDS011;6528;48.086;16.282;2022-07-06T07:31:55;3.65;;;2.92;;
12921;SDS011;6528;48.086;16.282;2022-07-06T07:34:22;2.33;;;2.13;;
12921;SDS011;6528;48.086;16.282;2022-07-06T07:36:49;2.85;;;1.50;;
12921;SDS011;6528;48.086;16.282;2022-07-06T07:39:16;1.50;;;1.40;;
12921;SDS011;6528;48.086;16.282;2022-07-06T07:41:43;1.73;;;1.60;;
12921;SDS011;6528;48.086;16.282;2022-07-06T07:44:11;1.58;;;1.30;;
12921;SDS011;6528;48.086;16.282;2022-07-06T07:46:38;1.80;;;1.70;;
12921;SDS011;6528;48.086;16.282;2022-07-06T07:49:05;2.35;;;1.60;;
12921;SDS011;6528;48.086;16.282;2022-07-06T07:51:32;1.98;;;1.60;;
12921;SDS011;6528;48.086;16.282;2022-07-06T07:53:59;2.50;;;1.75;;
12921;SDS011;6528;48.086;16.282;2022-07-06T07:56:26;2.35;;;1.45;;
12921;SDS011;6528;48.086;16.282;2022-07-06T07:58:53;2.55;;;1.90;;
12921;SDS011;6528;48.086;16.282;2022-07-06T08:01:20;1.90;;;1.80;;
12921;SDS011;6528;48.086;16.282;2022-07-06T08:03:47;2.40;;;2.10;;
12921;SDS011;6528;48.086;16.282;2022-07-06T08:06:13;3.50;;;2.88;;
12921;SDS011;6528;48.086;16.282;2022-07-06T08:08:40;2.50;;;2.40;;
12921;SDS011;6528;48.086;16.282;2022-07-06T08:11:07;3.57;;;2.50;;
12921;SDS011;6528;48.086;16.282;2022-07-06T08:13:45;2.43;;;2.33;;
12921;SDS011;6528;48.086;16.282;2022-07-06T08:16:12;2.43;;;2.23;;
12921;SDS011;6528;48.086;16.282;2022-07-06T08:18:40;3.47;;;2.33;;
12921;SDS011;6528;48.086;16.282;2022-07-06T08:21:07;3.75;;;2.05;;
12921;SDS011;6528;48.086;16.282;2022-07-06T08:23:53;2.35;;;2.25;;
12921;SDS011;6528;48.086;16.282;2022-07-06T08:26:21;2.40;;;2.20;;
12921;SDS011;6528;48.086;16.282;2022-07-06T08:28:48;2.88;;;2.20;;
12921;SDS011;6528;48.086;16.282;2022-07-06T08:31:15;1.80;;;1.70;;
12921;SDS011;6528;48.086;16.282;2022-07-06T08:34:02;1.83;;;1.73;;
12921;SDS011;6528;48.086;16.282;2022-07-06T08:36:29;1.73;;;1.63;;
12921;SDS011;6528;48.086;16.282;2022-07-06T08:38:56;1.55;;;1.48;;
12921;SDS011;6528;48.086;16.282;2022-07-06T08:41:25;1.50;;;1.50;;
12921;SDS011;6528;48.086;16.282;2022-07-06T08:43:52;1.65;;;1.55;;
12921;SDS011;6528;48.086;16.282;2022-07-06T08:46:20;1.65;;;1.45;;
12921;SDS011;6528;48.086;16.282;2022-07-06T08:48:48;2.67;;;1.88;;
12921;SDS011;6528;48.086;16.282;2022-07-06T08:51:16;1.92;;;1.58;;
12921;SDS011;6528;48.086;16.282;2022-07-06T08:53:44;2.20;;;2.00;;
12921;SDS011;6528;48.086;16.282;2022-07-06T08:56:12;2.00;;;1.90;;
12921;SDS011;6528;48.086;16.282;2022-07-06T08:58:39;1.42;;;1.33;;
12921;SDS011;6528;48.086;16.282;2022-07-06T09:01:09;1.75;;;1.65;;
12921;SDS011;6528;48.086;16.282;2022-07-06T09:03:40;2.75;;;1.50;;
12921;SDS011;6528;48.086;16.282;2022-07-06T09:06:08;4.40;;;1.65;;
12921;SDS011;6528;48.086;16.282;2022-07-06T09:08:35;2.10;;;1.50;;
12921;SDS011;6528;48.086;16.282;2022-07-06T09:11:06;1.58;;;1.35;;
12921;SDS011;6528;48.086;16.282;2022-07-06T09:13:33;1.60;;;1.50;;
12921;SDS011;6528;48.086;16.282;2022-07-06T09:16:13;1.88;;;1.77;;
12921;SDS011;6528;48.086;16.282;2022-07-06T09:19:01;2.03;;;1.42;;
12921;SDS011;6528;48.086;16.282;2022-07-06T09:21:29;2.22;;;1.63;;
12921;SDS011;6528;48.086;16.282;2022-07-06T09:23:59;1.75;;;1.65;;
12921;SDS011;6528;48.086;16.282;2022-07-06T09:26:30;1.88;;;1.77;;
12921;SDS011;6528;48.086;16.282;2022-07-06T09:28:57;3.17;;;1.58;;
12921;SDS011;6528;48.086;16.282;2022-07-06T09:31:25;5.53;;;1.70;;
12921;SDS011;6528;48.086;16.282;2022-07-06T09:33:57;2.53;;;1.83;;
12921;SDS011;6528;48.086;16.282;2022-07-06T09:39:19;1.30;;;1.30;;
12921;SDS011;6528;48.086;16.282;2022-07-06T09:41:48;1.90;;;1.80;;
12921;SDS011;6528;48.086;16.282;2022-07-06T09:47:07;3.42;;;1.83;;
12921;SDS011;6528;48.086;16.282;2022-07-06T09:49:35;1.73;;;1.60;;
12921;SDS011;6528;48.086;16.282;2022-07-06T09:52:03;2.38;;;1.63;;
12921;SDS011;6528;48.086;16.282;2022-07-06T09:54:32;1.48;;;1.38;;
12921;SDS011;6528;48.086;16.282;2022-07-06T09:57:01;2.90;;;1.90;;
12921;SDS011;6528;48.086;16.282;2022-07-06T09:59:34;2.10;;;1.60;;
12921;SDS011;6528;48.086;16.282;2022-07-06T10:02:05;1.90;;;1.80;;
12921;SDS011;6528;48.086;16.282;2022-07-06T10:04:33;2.67;;;2.10;;
12921;SDS011;6528;48.086;16.282;2022-07-06T10:07:00;3.65;;;1.50;;
12921;SDS011;6528;48.086;16.282;2022-07-06T10:09:28;2.00;;;1.90;;
12921;SDS011;6528;48.086;16.282;2022-07-06T10:11:56;1.73;;;1.67;;
12921;SDS011;6528;48.086;16.282;2022-07-06T10:14:25;2.63;;;1.73;;
12921;SDS011;6528;48.086;16.282;2022-07-06T10:16:57;2.25;;;1.85;;
12921;SDS011;6528;48.086;16.282;2022-07-06T10:19:26;2.13;;;2.03;;
12921;SDS011;6528;48.086;16.282;2022-07-06T10:21:56;1.90;;;1.80;;
12921;SDS011;6528;48.086;16.282;2022-07-06T10:24:26;2.25;;;2.15;;
12921;SDS011;6528;48.086;16.282;2022-07-06T10:26:54;2.90;;;1.90;;
12921;SDS011;6528;48.086;16.282;2022-07-06T10:29:22;2.17;;;2.08;;
12921;SDS011;6528;48.086;16.282;2022-07-06T10:31:50;3.33;;;2.67;;
12921;SDS011;6528;48.086;16.282;2022-07-06T10:34:18;3.30;;;2.70;;
12921;SDS011;6528;48.086;16.282;2022-07-06T10:36:50;3.50;;;2.63;;
12921;SDS011;6528;48.086;16.282;2022-07-06T10:39:31;3.30;;;3.10;;
12921;SDS011;6528;48.086;16.282;2022-07-06T10:45:03;4.00;;;3.70;;
12921;SDS011;6528;48.086;16.282;2022-07-06T10:47:30;4.10;;;3.70;;
12921;SDS011;6528;48.086;16.282;2022-07-06T10:50:01;4.27;;;3.87;;
12921;SDS011;6528;48.086;16.282;2022-07-06T10:55:28;11.37;;;6.53;;
12921;SDS011;6528;48.086;16.282;2022-07-06T10:57:58;11.57;;;5.80;;
12921;SDS011;6528;48.086;16.282;2022-07-06T11:00:26;6.20;;;5.10;;
12921;SDS011;6528;48.086;16.282;2022-07-06T11:04:19;10.00;;;4.53;;
12921;SDS011;6528;48.086;16.282;2022-07-06T11:06:36;7.97;;;3.80;;
12921;SDS011;6528;48.086;16.282;2022-07-06T11:09:04;7.23;;;4.43;;
12921;SDS011;6528;48.086;16.282;2022-07-06T11:14:05;6.37;;;4.40;;
12921;SDS011;6528;48.086;16.282;2022-07-06T11:16:39;4.30;;;3.90;;
12921;SDS011;6528;48.086;16.282;2022-07-06T11:19:11;4.20;;;3.87;;
12921;SDS011;6528;48.086;16.282;2022-07-06T11:21:45;4.13;;;3.73;;
12921;SDS011;6528;48.086;16.282;2022-07-06T11:24:14;6.83;;;4.10;;
12921;SDS011;6528;48.086;16.282;2022-07-06T11:26:42;3.80;;;3.50;;
12921;SDS011;6528;48.086;16.282;2022-07-06T11:29:10;4.33;;;4.03;;
12921;SDS011;6528;48.086;16.282;2022-07-06T11:31:42;3.67;;;3.33;;
12921;SDS011;6528;48.086;16.282;2022-07-06T11:34:09;3.70;;;3.23;;
12921;SDS011;6528;48.086;16.282;2022-07-06T11:36:37;2.60;;;2.50;;
12921;SDS011;6528;48.086;16.282;2022-07-06T11:39:11;3.37;;;3.07;;
12921;SDS011;6528;48.086;16.282;2022-07-06T11:41:38;3.27;;;3.03;;
12921;SDS011;6528;48.086;16.282;2022-07-06T11:44:05;3.17;;;2.97;;
12921;SDS011;6528;48.086;16.282;2022-07-06T11:46:33;3.17;;;2.87;;
12921;SDS011;6528;48.086;16.282;2022-07-06T11:49:04;3.70;;;3.40;;
12921;SDS011;6528;48.086;16.282;2022-07-06T11:51:32;3.93;;;3.60;;
12921;SDS011;6528;48.086;16.282;2022-07-06T11:54:01;3.07;;;2.87;;
12921;SDS011;6528;48.086;16.282;2022-07-06T11:56:29;3.10;;;2.90;;
12921;SDS011;6528;48.086;16.282;2022-07-06T11:58:57;2.50;;;2.40;;
12921;SDS011;6528;48.086;16.282;2022-07-06T12:01:26;2.90;;;2.50;;
12921;SDS011;6528;48.086;16.282;2022-07-06T12:03:57;3.00;;;2.80;;
12921;SDS011;6528;48.086;16.282;2022-07-06T12:06:25;3.53;;;3.23;;
12921;SDS011;6528;48.086;16.282;2022-07-06T12:08:54;3.20;;;3.00;;
12921;SDS011;6528;48.086;16.282;2022-07-06T12:11:28;4.07;;;3.77;;
12921;SDS011;6528;48.086;16.282;2022-07-06T12:13:57;3.87;;;3.57;;
12921;SDS011;6528;48.086;16.282;2022-07-06T12:16:34;8.53;;;4.37;;
12921;SDS011;6528;48.086;16.282;2022-07-06T12:19:03;3.80;;;3.60;;
12921;SDS011;6528;48.086;16.282;2022-07-06T12:21:33;6.67;;;3.90;;
12921;SDS011;6528;48.086;16.282;2022-07-06T12:24:07;3.67;;;3.47;;
12921;SDS011;6528;48.086;16.282;2022-07-06T12:26:40;3.83;;;3.53;;
12921;SDS011;6528;48.086;16.282;2022-07-06T12:29:08;4.57;;;4.27;;
12921;SDS011;6528;48.086;16.282;2022-07-06T12:31:42;7.70;;;4.33;;
12921;SDS011;6528;48.086;16.282;2022-07-06T12:34:21;4.50;;;4.13;;
12921;SDS011;6528;48.086;16.282;2022-07-06T12:36:49;4.10;;;3.73;;
12921;SDS011;6528;48.086;16.282;2022-07-06T12:39:17;3.57;;;3.37;;
12921;SDS011;6528;48.086;16.282;2022-07-06T12:41:52;3.73;;;3.43;;
12921;SDS011;6528;48.086;16.282;2022-07-06T12:44:23;3.73;;;3.53;;
12921;SDS011;6528;48.086;16.282;2022-07-06T12:47:01;3.30;;;3.17;;
12921;SDS011;6528;48.086;16.282;2022-07-06T12:49:29;3.80;;;3.40;;
12921;SDS011;6528;48.086;16.282;2022-07-06T12:52:00;3.40;;;3.20;;
12921;SDS011;6528;48.086;16.282;2022-07-06T12:54:35;3.90;;;3.60;;
12921;SDS011;6528;48.086;16.282;2022-07-06T12:59:42;7.40;;;2.83;;
12921;SDS011;6528;48.086;16.282;2022-07-06T13:02:16;3.50;;;3.20;;
12921;SDS011;6528;48.086;16.282;2022-07-06T13:05:27;3.23;;;3.03;;
12921;SDS011;6528;48.086;16.282;2022-07-06T13:07:55;5.13;;;3.00;;
12921;SDS011;6528;48.086;16.282;2022-07-06T13:10:23;3.50;;;3.30;;
12921;SDS011;6528;48.086;16.282;2022-07-06T13:12:51;3.37;;;2.40;;
12921;SDS011;6528;48.086;16.282;2022-07-06T13:15:18;3.27;;;3.07;;
12921;SDS011;6528;48.086;16.282;2022-07-06T13:17:45;5.50;;;3.27;;
12921;SDS011;6528;48.086;16.282;2022-07-06T13:20:12;4.40;;;2.70;;
12921;SDS011;6528;48.086;16.282;2022-07-06T13:22:40;2.60;;;2.50;;
12921;SDS011;6528;48.086;16.282;2022-07-06T13:25:06;6.07;;;3.53;;
12921;SDS011;6528;48.086;16.282;2022-07-06T13:27:34;5.50;;;2.63;;
12921;SDS011;6528;48.086;16.282;2022-07-06T13:30:01;2.90;;;2.70;;
12921;SDS011;6528;48.086;16.282;2022-07-06T13:32:28;5.60;;;4.00;;
12921;SDS011;6528;48.086;16.282;2022-07-06T13:34:55;7.23;;;3.83;;
12921;SDS011;6528;48.086;16.282;2022-07-06T13:37:22;6.27;;;3.60;;
12921;SDS011;6528;48.086;16.282;2022-07-06T13:39:48;9.37;;;4.40;;
12921;SDS011;6528;48.086;16.282;2022-07-06T13:42:15;10.67;;;4.57;;
12921;SDS011;6528;48.086;16.282;2022-07-06T13:44:42;8.13;;;5.00;;
12921;SDS011;6528;48.086;16.282;2022-07-06T13:47:09;4.50;;;3.80;;
12921;SDS011;6528;48.086;16.282;2022-07-06T13:49:36;3.17;;;2.93;;
12921;SDS011;6528;48.086;16.282;2022-07-06T13:52:03;3.67;;;3.37;;
12921;SDS011;6528;48.086;16.282;2022-07-06T13:54:31;3.90;;;3.43;;
12921;SDS011;6528;48.086;16.282;2022-07-06T13:56:58;4.30;;;3.20;;
12921;SDS011;6528;48.086;16.282;2022-07-06T13:59:28;3.47;;;2.73;;
12921;SDS011;6528;48.086;16.282;2022-07-06T14:01:56;3.00;;;2.80;;
12921;SDS011;6528;48.086;16.282;2022-07-06T14:04:24;7.30;;;2.80;;
12921;SDS011;6528;48.086;16.282;2022-07-06T14:06:51;9.20;;;3.27;;
12921;SDS011;6528;48.086;16.282;2022-07-06T14:09:18;6.93;;;2.80;;
12921;SDS011;6528;48.086;16.282;2022-07-06T14:11:45;7.27;;;3.00;;
12921;SDS011;6528;48.086;16.282;2022-07-06T14:14:12;7.90;;;3.60;;
12921;SDS011;6528;48.086;16.282;2022-07-06T14:16:40;9.00;;;3.90;;
12921;SDS011;6528;48.086;16.282;2022-07-06T14:19:07;8.50;;;3.60;;
12921;SDS011;6528;48.086;16.282;2022-07-06T14:21:34;5.47;;;3.60;;
12921;SDS011;6528;48.086;16.282;2022-07-06T14:24:02;8.77;;;3.60;;
12921;SDS011;6528;48.086;16.282;2022-07-06T14:26:29;4.40;;;3.70;;
12921;SDS011;6528;48.086;16.282;2022-07-06T14:28:58;8.73;;;3.20;;
12921;SDS011;6528;48.086;16.282;2022-07-06T14:31:25;5.50;;;3.57;;
12921;SDS011;6528;48.086;16.282;2022-07-06T14:33:52;8.50;;;3.37;;
12921;SDS011;6528;48.086;16.282;2022-07-06T14:36:19;7.13;;;3.73;;
12921;SDS011;6528;48.086;16.282;2022-07-06T14:38:46;7.93;;;3.97;;
12921;SDS011;6528;48.086;16.282;2022-07-06T14:41:14;9.83;;;3.70;;
12921;SDS011;6528;48.086;16.282;2022-07-06T14:43:41;5.33;;;4.70;;
12921;SDS011;6528;48.086;16.282;2022-07-06T14:46:08;3.77;;;3.50;;
12921;SDS011;6528;48.086;16.282;2022-07-06T14:48:35;4.17;;;3.93;;
12921;SDS011;6528;48.086;16.282;2022-07-06T14:51:02;4.53;;;4.00;;
12921;SDS011;6528;48.086;16.282;2022-07-06T14:53:30;3.90;;;3.70;;
12921;SDS011;6528;48.086;16.282;2022-07-06T14:55:57;4.17;;;3.73;;
12921;SDS011;6528;48.086;16.282;2022-07-06T14:58:23;6.30;;;3.30;;
12921;SDS011;6528;48.086;16.282;2022-07-06T15:00:50;9.27;;;5.23;;
12921;SDS011;6528;48.086;16.282;2022-07-06T15:03:24;10.00;;;4.23;;
12921;SDS011;6528;48.086;16.282;2022-07-06T15:05:52;5.73;;;4.33;;
12921;SDS011;6528;48.086;16.282;2022-07-06T15:08:19;4.13;;;3.83;;
12921;SDS011;6528;48.086;16.282;2022-07-06T15:10:46;4.37;;;3.80;;
12921;SDS011;6528;48.086;16.282;2022-07-06T15:13:14;4.33;;;4.03;;